Riverside, CA (92509)

3:43 PM PDT on August 31, 2015 (GMT -0700)
Indian Hills | | Change Station
CLOSE
Current Station
Personal Weather Station
Location: Riverside, CA
Elevation: 1070 ft
Nearby Weather Stations

Elev 1070 ft 33.99 °N, 117.45 °W | Updated 2 minutes ago

Clear
Clear
86.8 °F
Feels Like 87 °F
N
17.0
Wind Variable Wind from NNW
Gusts 19.0 mph

Today
High -- | Low -- °F
--% Chance of Precip.
Yesterday
High -- | Low -- °F
Precip. -- in
6:22 AM 7:17 PM
Waning Gibbous, 93% visible
Pressure 29.80 in
Visibility 10.0 miles
Clouds Clear
Heat Index 87 °F
Dew Point 61 °F
Humidity 42%
Rainfall 0.00 in
Snow Depth Not available.
UV 8 out of 12
Pollen 7.20 out of 12
Air Quality Not available.
Flu Activity Not available.
METAR KRAL 312153Z 28008KT 10SM CLR 33/14 A2985 RMK AO2 SLP090 T03280139
Pressure 29.80 in
Visibility 10.0 miles
Clouds Clear
Heat Index 87 °F
Dew Point 61 °F
Humidity 42%
Rainfall 0.00 in
Snow Depth Not available.
UV 8 out of 12
Pollen 7.20 out of 12
Air Quality Not available.
Flu Activity Not available.
METAR KRAL 312153Z 28008KT 10SM CLR 33/14 A2985 RMK AO2 SLP090 T03280139

10-Day Weather Forecast

×

Almanac

Astronomy

Aug. 31, 2015 Rise Set
Actual Time
Civil Twilight
Nautical Twilight
Astronomical Twilight
Moon
Length of Visible Light
Length of Day
Tomorrow will be .
, % of the Moon is Illuminated

Today's Extremes

State Highs State Lows

Community

WunderPhotos

Upload Photos

1,851,390 photos uploaded!

WunderBlogs® & News

Nearby

Air Quality

  Air Quality AQ Index Pollutant
Not available.

Snow Depth

Station Depth Elevation

Earthquake Activity

City Distance Mag. Time & Date
Minimum magnitude displayed is 2.5.

Coastal Water Temperatures

Place Temperature

Stations

Nearby Weather Stations

Station Location Temp. Windchill Dew Point Humidity Wind Precip. Elev Updated Type